createdAt,value
2018-11-20T00:00:47.731Z,16.55
2018-11-20T00:03:38.023Z,16.12
2018-11-20T00:06:32.592Z,16.17
2018-11-20T00:09:13.391Z,15.50
2018-11-20T00:14:56.001Z,16.50
2018-11-20T00:17:56.078Z,16.70
2018-11-20T00:20:37.070Z,17.42
2018-11-20T00:23:36.562Z,16.20
2018-11-20T00:26:25.605Z,17.00
2018-11-20T00:29:32.840Z,16.60
2018-11-20T00:35:17.347Z,17.67
2018-11-20T00:37:58.415Z,16.10
2018-11-20T00:40:39.501Z,16.73
2018-11-20T00:43:34.985Z,15.88
2018-11-20T00:46:25.113Z,16.15
2018-11-20T00:48:58.366Z,17.57
2018-11-20T00:51:47.452Z,16.67
2018-11-20T00:54:44.784Z,15.48
2018-11-20T00:57:27.718Z,15.30
2018-11-20T01:00:22.213Z,15.65
2018-11-20T01:03:07.597Z,14.78
2018-11-20T01:05:38.157Z,15.75
2018-11-20T01:08:30.107Z,16.32
2018-11-20T01:11:22.088Z,16.60
2018-11-20T01:16:48.374Z,14.90
2018-11-20T01:19:40.225Z,16.12
2018-11-20T01:22:21.221Z,15.40
2018-11-20T01:25:20.899Z,14.65
2018-11-20T01:28:12.515Z,15.15
2018-11-20T01:31:02.797Z,15.35
2018-11-20T01:34:02.133Z,16.00
2018-11-20T01:36:56.168Z,14.28
2018-11-20T01:42:43.033Z,16.97
2018-11-20T01:45:32.530Z,16.27
2018-11-20T01:48:24.670Z,15.93
2018-11-20T01:51:15.877Z,15.75
2018-11-20T01:54:09.554Z,16.45
2018-11-20T01:56:59.538Z,16.40
2018-11-20T02:02:33.672Z,15.25
2018-11-20T02:05:06.696Z,16.82
2018-11-20T02:08:06.442Z,16.65
2018-11-20T02:11:03.417Z,16.85
2018-11-20T02:13:44.353Z,15.60
2018-11-20T02:16:47.441Z,17.48
2018-11-20T02:19:47.371Z,18.87
2018-11-20T02:22:46.903Z,16.67
2018-11-20T02:25:47.178Z,15.95
2018-11-20T02:28:41.445Z,17.32
2018-11-20T04:54:25.068Z,17.10
2018-11-20T04:57:15.150Z,16.82
2018-11-20T05:00:22.346Z,16.67
2018-11-20T05:03:22.369Z,14.85
2018-11-20T05:06:25.476Z,16.27
2018-11-20T05:09:21.131Z,15.10
2018-11-20T05:12:09.319Z,17.30
2018-11-20T05:14:57.483Z,16.32
2018-11-20T05:17:45.637Z,17.67
2018-11-20T05:20:36.061Z,15.23
2018-11-20T05:23:26.097Z,16.42
2018-11-20T05:28:41.003Z,17.10
2018-11-20T05:34:11.736Z,16.70
2018-11-20T05:36:53.661Z,16.17
2018-11-20T05:39:22.148Z,17.87
2018-11-20T05:42:17.208Z,18.75
2018-11-20T05:45:11.906Z,17.67
2018-11-20T05:48:19.086Z,16.97
2018-11-20T05:51:18.499Z,18.57
2018-11-20T05:54:21.069Z,17.37
2018-11-20T05:57:20.749Z,17.27
2018-11-20T06:00:15.889Z,17.02
2018-11-20T06:05:46.151Z,18.42
2018-11-20T06:11:28.076Z,17.52
2018-11-20T06:14:27.787Z,17.20
2018-11-20T06:17:15.679Z,17.25
2018-11-20T06:20:01.012Z,16.73
2018-11-20T06:25:21.723Z,17.32
2018-11-20T06:30:41.615Z,17.27
2018-11-20T06:36:06.303Z,17.07
2018-11-20T06:39:01.450Z,17.95
2018-11-20T06:41:54.854Z,17.40
2018-11-20T06:44:28.069Z,17.23
2018-11-20T06:47:17.849Z,15.68
2018-11-20T06:50:11.247Z,16.52
2018-11-20T06:55:33.461Z,16.70
2018-11-20T07:01:04.435Z,17.67
2018-11-20T07:03:50.386Z,18.45
2018-11-20T07:06:34.410Z,17.15
2018-11-20T07:09:20.708Z,18.57
2018-11-20T07:12:13.445Z,18.30
2018-11-20T07:15:03.828Z,16.55
2018-11-20T07:17:51.577Z,17.95
2018-11-20T07:20:48.065Z,18.67
2018-11-20T07:26:08.820Z,16.52
2018-11-20T07:31:57.002Z,20.10
2018-11-20T07:34:39.734Z,17.57
2018-11-20T07:37:28.892Z,17.50
2018-11-20T07:43:09.770Z,16.32
2018-11-20T07:45:59.791Z,18.00
2018-11-20T07:48:45.024Z,18.20
2018-11-20T07:51:13.134Z,18.37
2018-11-20T07:54:07.580Z,18.85
2018-11-20T07:57:01.519Z,17.67
2018-11-20T07:59:41.623Z,18.98
2018-11-20T08:02:23.656Z,18.48
2018-11-20T08:05:01.420Z,17.12
2018-11-20T08:07:50.165Z,18.87
2018-11-20T08:10:40.314Z,16.77
2018-11-20T08:13:30.477Z,17.92
2018-11-20T08:16:26.666Z,17.20
2018-11-20T08:19:16.504Z,17.25
2018-11-20T08:24:46.158Z,17.30
2018-11-20T08:27:34.217Z,17.95
2018-11-20T08:30:17.959Z,17.42
2018-11-20T08:33:09.472Z,18.90
2018-11-20T08:35:51.935Z,18.37
2018-11-20T08:38:41.165Z,17.60
2018-11-20T08:43:42.879Z,16.02
2018-11-20T08:46:32.847Z,16.73
2018-11-20T08:49:30.625Z,16.52
2018-11-20T08:52:03.865Z,16.93
2018-11-20T08:54:55.788Z,18.12
2018-11-20T08:57:49.597Z,17.02
2018-11-20T09:02:55.174Z,15.48
2018-11-20T09:05:52.151Z,16.82
2018-11-20T09:11:39.598Z,17.23
2018-11-20T09:16:58.728Z,16.37
2018-11-20T09:19:48.582Z,16.45
2018-11-20T09:25:22.323Z,15.90
2018-11-20T09:28:29.545Z,15.85
2018-11-20T09:31:10.861Z,16.90
2018-11-20T09:34:10.669Z,15.63
2018-11-20T09:37:04.796Z,13.43
2018-11-20T09:40:10.627Z,14.15
2018-11-20T09:42:59.860Z,15.80
2018-11-20T09:45:41.066Z,14.15
2018-11-20T09:48:33.072Z,14.55
2018-11-20T09:51:24.959Z,14.20
2018-11-20T09:57:08.677Z,14.70
2018-11-20T10:02:49.821Z,15.32
2018-11-20T10:11:21.286Z,15.03
2018-11-20T10:14:21.199Z,14.78
2018-11-20T10:17:20.626Z,15.60
2018-11-20T10:20:20.893Z,13.25
2018-11-20T10:23:20.765Z,13.50
2018-11-20T10:29:02.534Z,13.72
2018-11-20T10:34:45.098Z,13.68
2018-11-20T10:37:26.229Z,13.70
2018-11-20T10:43:16.301Z,14.60
2018-11-20T10:46:04.558Z,15.13
2018-11-20T10:49:04.454Z,14.13
2018-11-20T10:52:04.154Z,11.93
2018-11-20T10:54:45.443Z,13.45
2018-11-20T10:57:51.048Z,14.10
2018-11-20T11:00:53.934Z,13.80
2018-11-20T11:03:53.485Z,14.98
2018-11-20T11:06:34.897Z,14.33
2018-11-20T11:09:37.271Z,13.60
2018-11-20T11:12:39.781Z,12.80
2018-11-20T11:15:34.513Z,15.48
2018-11-20T11:18:41.699Z,17.05
2018-11-20T11:21:48.903Z,15.23
2018-11-20T11:24:38.120Z,14.90
2018-11-20T11:27:45.257Z,16.35
2018-11-20T11:30:52.476Z,16.17
2018-11-20T11:34:00.021Z,15.53
2018-11-20T11:36:49.926Z,14.87
2018-11-20T11:43:10.364Z,16.75
2018-11-20T11:51:25.560Z,13.40
2018-11-20T11:54:13.028Z,13.43
2018-11-20T11:57:06.884Z,14.10
2018-11-20T11:59:55.540Z,16.30
2018-11-20T12:05:45.272Z,14.83
2018-11-20T12:08:45.067Z,14.13
2018-11-20T12:11:44.987Z,15.00
2018-11-20T12:14:44.842Z,14.58
2018-11-20T12:17:44.270Z,15.10
2018-11-20T12:20:35.684Z,14.35
2018-11-20T12:23:16.165Z,13.68
2018-11-20T12:26:11.586Z,16.90
2018-11-20T12:29:11.075Z,14.05
2018-11-20T12:32:08.511Z,18.10
2018-11-20T12:35:04.522Z,21.40
2018-11-20T12:38:04.314Z,15.72
2018-11-20T12:41:04.509Z,16.20
2018-11-20T12:43:57.043Z,20.35
2018-11-20T12:46:52.660Z,19.70
2018-11-20T12:49:52.785Z,14.93
2018-11-20T12:52:52.204Z,14.65
2018-11-20T12:55:59.441Z,13.53
2018-11-20T12:58:54.254Z,12.80
2018-11-20T13:01:35.499Z,15.35
2018-11-20T13:04:35.379Z,15.43
2018-11-20T13:07:35.018Z,14.68
2018-11-20T13:10:34.634Z,13.32
2018-11-20T13:19:19.773Z,12.30
2018-11-20T13:22:19.298Z,12.23
2018-11-20T13:25:09.442Z,13.80
2018-11-20T13:28:14.732Z,14.47
2018-11-20T13:31:12.303Z,13.75
2018-11-20T13:34:12.148Z,13.88
2018-11-20T13:37:11.836Z,13.30
2018-11-20T13:40:11.841Z,12.35
2018-11-20T13:43:11.822Z,11.40
2018-11-20T13:46:00.843Z,11.93
2018-11-20T13:49:00.259Z,11.80
2018-11-20T13:51:52.371Z,12.85
2018-11-20T13:54:51.999Z,14.40
2018-11-20T13:57:37.051Z,11.88
2018-11-20T14:09:23.475Z,13.18
2018-11-20T14:12:31.114Z,14.47
2018-11-20T14:15:11.924Z,13.53
2018-11-20T14:18:04.617Z,14.18
2018-11-20T14:20:45.131Z,12.73
2018-11-20T14:26:28.312Z,13.53
2018-11-20T14:29:30.793Z,11.80
2018-11-20T14:32:33.611Z,13.08
2018-11-20T14:35:33.575Z,13.55
2018-11-20T14:38:43.892Z,13.98
2018-11-20T14:45:06.089Z,15.60
2018-11-20T14:51:05.823Z,14.60
2018-11-20T14:54:13.270Z,15.38
2018-11-20T14:57:13.256Z,14.73
2018-11-20T15:00:16.037Z,14.10
2018-11-20T15:06:14.761Z,15.85
2018-11-20T15:09:20.368Z,31.95
2018-11-20T15:15:25.309Z,21.35
2018-11-20T15:18:25.330Z,18.67
2018-11-20T15:21:21.868Z,17.75
2018-11-20T15:24:21.217Z,14.87
2018-11-20T15:27:20.945Z,15.25
2018-11-20T15:30:20.331Z,16.80
2018-11-20T15:33:25.780Z,16.82
2018-11-20T15:36:25.941Z,17.00
2018-11-20T15:39:16.650Z,15.30
2018-11-20T15:42:16.708Z,18.45
2018-11-20T15:45:16.237Z,18.02
2018-11-20T15:48:15.259Z,17.77
2018-11-20T15:51:14.659Z,18.15
2018-11-20T15:54:14.803Z,16.95
2018-11-20T15:57:11.028Z,18.05
2018-11-20T16:00:11.059Z,18.30
2018-11-20T16:03:13.689Z,17.77
2018-11-20T16:06:13.624Z,18.48
2018-11-20T16:09:13.512Z,19.32
2018-11-20T16:12:13.579Z,18.85
2018-11-20T16:15:09.619Z,21.02
2018-11-20T16:18:04.914Z,22.77
2018-11-20T16:21:02.743Z,20.48
2018-11-20T16:24:04.896Z,18.77
2018-11-20T16:27:04.443Z,18.92
2018-11-20T16:30:04.800Z,20.43
2018-11-20T16:33:03.691Z,18.80
2018-11-20T16:36:06.114Z,17.95
2018-11-20T16:39:06.134Z,16.65
2018-11-20T16:41:54.380Z,16.45
2018-11-20T16:45:01.706Z,19.27
2018-11-20T16:48:01.027Z,20.17
2018-11-20T16:54:06.716Z,18.95
2018-11-20T16:57:09.781Z,19.12
2018-11-20T17:02:44.972Z,19.32
2018-11-20T17:05:25.809Z,18.50
2018-11-20T17:08:25.450Z,17.87
2018-11-20T17:11:05.834Z,17.77
2018-11-20T17:16:48.048Z,22.80
2018-11-20T17:25:14.104Z,20.50
2018-11-20T17:31:00.133Z,20.00
2018-11-20T17:36:36.465Z,20.32
2018-11-20T17:41:45.428Z,21.02
2018-11-20T17:47:35.486Z,21.75
2018-11-20T17:50:42.711Z,21.50
2018-11-20T17:53:36.868Z,24.60
2018-11-20T17:59:10.712Z,32.73
2018-11-20T18:04:49.419Z,19.62
2018-11-20T18:07:55.918Z,22.25
2018-11-20T18:13:33.162Z,20.50
2018-11-20T18:16:06.324Z,21.17
2018-11-20T18:18:58.138Z,21.73
2018-11-20T18:21:52.446Z,23.30
2018-11-20T18:27:34.629Z,24.87
2018-11-20T18:33:10.838Z,26.65
2018-11-20T18:35:59.376Z,24.07
2018-11-20T18:38:52.761Z,26.17
2018-11-20T18:41:25.224Z,25.02
2018-11-20T18:44:17.231Z,23.32
2018-11-20T18:47:09.012Z,23.38
2018-11-20T18:49:59.018Z,24.00
2018-11-20T18:55:41.179Z,23.22
2018-11-20T18:58:36.885Z,22.75
2018-11-20T19:01:35.591Z,23.07
2018-11-20T19:04:35.652Z,24.15
2018-11-20T19:10:49.562Z,23.98
2018-11-20T19:13:49.220Z,25.68
2018-11-20T19:23:04.074Z,27.25
2018-11-20T19:26:05.026Z,28.17
2018-11-20T19:32:10.627Z,25.15
2018-11-20T19:35:13.508Z,25.85
2018-11-20T19:38:13.218Z,24.40
2018-11-20T19:41:04.416Z,25.52
2018-11-20T19:44:11.909Z,24.32
2018-11-20T19:47:11.648Z,39.03
2018-11-20T19:50:03.593Z,29.55
2018-11-20T19:52:58.998Z,26.90
2018-11-20T19:56:01.633Z,27.07
2018-11-20T20:07:27.784Z,27.95
2018-11-20T20:10:18.617Z,27.40
2018-11-20T20:16:06.924Z,26.82
2018-11-20T20:39:35.170Z,39.53
2018-11-20T20:42:15.635Z,40.98
2018-11-20T20:45:11.459Z,33.63
2018-11-20T20:47:54.039Z,30.52
2018-11-20T20:50:27.462Z,31.85
2018-11-20T20:53:19.230Z,32.10
2018-11-20T20:56:12.847Z,32.83
2018-11-20T20:59:22.191Z,34.00
2018-11-20T21:02:10.363Z,29.77
2018-11-20T21:05:00.095Z,31.95
2018-11-20T21:07:43.284Z,33.70
2018-11-20T21:19:01.383Z,30.62
2018-11-20T21:21:58.515Z,36.05
2018-11-20T21:24:41.872Z,30.72
2018-11-20T21:27:34.474Z,27.85
2018-11-20T21:30:27.821Z,28.32
2018-11-20T21:33:19.504Z,27.35
2018-11-20T21:36:17.211Z,29.75
2018-11-20T21:39:10.971Z,29.72
2018-11-20T21:44:47.338Z,31.02
2018-11-20T21:47:34.504Z,27.20
2018-11-20T21:50:05.082Z,26.90
2018-11-20T21:52:59.225Z,28.38
2018-11-20T21:58:19.867Z,32.80
2018-11-20T22:00:52.697Z,29.75
2018-11-20T22:03:52.862Z,30.25
2018-11-20T22:09:13.193Z,26.20
2018-11-20T22:20:49.987Z,26.12
2018-11-20T22:23:39.715Z,25.60
2018-11-20T22:26:32.118Z,27.37
2018-11-20T22:29:25.640Z,25.57
2018-11-20T22:31:58.367Z,28.38
2018-11-20T22:34:50.177Z,25.20
2018-11-20T22:37:42.378Z,27.40
2018-11-20T22:40:12.522Z,26.52
2018-11-20T22:43:04.187Z,28.75
2018-11-20T22:45:55.535Z,25.85
2018-11-20T23:02:34.108Z,26.73
2018-11-20T23:05:04.672Z,25.82
2018-11-20T23:07:45.360Z,24.43
2018-11-20T23:29:10.878Z,26.37
2018-11-20T23:34:42.612Z,25.92
2018-11-20T23:37:15.597Z,26.70
2018-11-20T23:39:46.560Z,25.80
2018-11-20T23:42:23.810Z,25.57
2018-11-20T23:44:52.305Z,25.70
2018-11-20T23:47:31.147Z,26.95
2018-11-20T23:50:04.229Z,24.75
2018-11-20T23:52:37.050Z,27.30
2018-11-20T23:57:44.831Z,24.92
